Time;durP1;ratioP1;P1;durP2;ratioP2;P2;SDS_P1;SDS_P2;PMS_P1;PMS_P2;Temp;Humidity;BMP_temperature;BMP_pressure;BME280_temperature;BME280_humidity;BME280_pressure;Samples;Min_cycle;Max_cycle;Signal;HPM_P1;HPM_P2
2021/11/22 00:01:16;;;;;;;54.17;25.15;;;8.70;99.90;;;;;;6245827;22;20050;-75
2021/11/22 00:03:42;;;;;;;55.55;23.90;;;8.70;99.90;;;;;;6245605;23;20000;-75
2021/11/22 00:06:07;;;;;;;61.88;24.38;;;8.70;99.90;;;;;;6245593;23;19996;-75
2021/11/22 00:08:33;;;;;;;55.80;24.52;;;8.70;99.90;;;;;;6243666;23;20032;-75
2021/11/22 00:10:59;;;;;;;56.05;22.83;;;8.70;99.90;;;;;;6243151;23;20014;-75
2021/11/22 00:13:26;;;;;;;58.15;23.42;;;8.70;99.90;;;;;;6243177;23;20027;-75
2021/11/22 00:15:53;;;;;;;58.35;24.02;;;8.70;99.90;;;;;;6243589;23;20015;-75
2021/11/22 00:18:19;;;;;;;54.95;23.90;;;8.70;99.90;;;;;;6245518;22;20003;-75
2021/11/22 00:20:45;;;;;;;54.15;24.98;;;8.70;99.90;;;;;;6245195;22;20007;-75
2021/11/22 00:23:11;;;;;;;58.72;24.65;;;8.70;99.90;;;;;;6243547;23;20455;-75
2021/11/22 00:25:36;;;;;;;56.53;24.02;;;8.70;99.90;;;;;;6243473;23;20454;-75
2021/11/22 00:28:02;;;;;;;53.15;23.88;;;8.70;99.90;;;;;;6243281;23;20014;-75
2021/11/22 00:30:29;;;;;;;53.55;24.35;;;8.70;99.90;;;;;;6245154;23;20027;-75
2021/11/22 00:32:57;;;;;;;59.33;24.95;;;8.70;99.90;;;;;;6245139;22;20000;-75
2021/11/22 00:35:31;;;;;;;50.78;22.88;;;8.70;99.90;;;;;;6245221;22;20000;-76
2021/11/22 00:37:57;;;;;;;54.72;22.88;;;8.60;99.90;;;;;;6243282;23;20061;-76
2021/11/22 00:40:23;;;;;;;55.95;25.33;;;8.60;99.90;;;;;;6243143;23;20007;-76
2021/11/22 00:42:49;;;;;;;58.75;25.40;;;8.60;99.90;;;;;;6245004;23;20004;-75
2021/11/22 00:45:16;;;;;;;54.72;23.52;;;8.60;99.90;;;;;;6245150;22;20030;-75
2021/11/22 00:47:42;;;;;;;56.63;24.65;;;8.60;99.90;;;;;;6245408;22;19992;-75
2021/11/22 00:50:09;;;;;;;52.75;24.40;;;8.70;99.90;;;;;;6243849;23;20428;-75
2021/11/22 00:52:35;;;;;;;57.92;25.13;;;8.60;99.90;;;;;;6245396;22;19997;-75
2021/11/22 00:55:01;;;;;;;55.70;24.25;;;8.70;99.90;;;;;;6245216;22;20043;-76
2021/11/22 00:57:27;;;;;;;54.10;21.92;;;8.70;99.90;;;;;;6245292;22;20071;-76
2021/11/22 00:59:52;;;;;;;45.40;22.55;;;8.70;99.90;;;;;;6245332;23;20364;-76
2021/11/22 01:02:18;;;;;;;45.00;20.88;;;8.70;99.90;;;;;;6243474;23;20004;-76
2021/11/22 01:04:44;;;;;;;46.30;22.33;;;8.60;99.90;;;;;;6244016;23;20000;-75
2021/11/22 01:07:10;;;;;;;45.75;22.13;;;8.70;99.90;;;;;;6243736;23;20034;-75
2021/11/22 01:09:35;;;;;;;42.08;21.63;;;8.70;99.90;;;;;;6245223;23;20000;-76
2021/11/22 01:12:01;;;;;;;45.33;21.85;;;8.70;99.90;;;;;;6245770;22;20007;-75
2021/11/22 01:14:27;;;;;;;46.40;21.95;;;8.70;99.90;;;;;;6245381;23;20000;-76
2021/11/22 01:16:53;;;;;;;44.13;22.48;;;8.70;99.90;;;;;;6247072;22;20000;-76
2021/11/22 01:19:19;;;;;;;39.90;20.48;;;8.80;99.90;;;;;;6244011;23;20000;-76
2021/11/22 01:21:45;;;;;;;39.80;20.85;;;8.80;99.90;;;;;;6246792;23;20375;-76
2021/11/22 01:24:11;;;;;;;38.85;18.67;;;8.70;99.90;;;;;;6246143;23;20331;-76
2021/11/22 01:26:37;;;;;;;43.10;20.52;;;8.70;99.90;;;;;;6247526;22;20000;-76
2021/11/22 01:29:03;;;;;;;41.35;20.85;;;8.70;99.90;;;;;;6247234;22;20007;-76
2021/11/22 01:31:30;;;;;;;44.15;21.98;;;8.70;99.90;;;;;;6247297;22;19996;-76
2021/11/22 01:33:55;;;;;;;45.90;21.00;;;8.70;99.90;;;;;;6247107;22;20004;-76
2021/11/22 01:36:21;;;;;;;47.78;20.98;;;8.70;99.90;;;;;;6245561;23;20459;-76
2021/11/22 01:38:47;;;;;;;51.00;21.80;;;8.80;99.90;;;;;;6247086;22;19997;-76
2021/11/22 01:41:13;;;;;;;45.45;20.88;;;8.80;99.90;;;;;;6247043;23;20031;-76
2021/11/22 01:43:38;;;;;;;45.60;20.45;;;8.80;99.90;;;;;;6247159;23;20000;-76
2021/11/22 01:46:04;;;;;;;45.08;21.15;;;8.80;99.90;;;;;;6247111;23;20004;-76
2021/11/22 01:48:30;;;;;;;51.83;22.30;;;8.80;99.90;;;;;;6245744;23;20009;-76
2021/11/22 01:50:56;;;;;;;51.10;21.73;;;8.80;99.90;;;;;;6247047;22;20004;-76
2021/11/22 01:53:24;;;;;;;46.83;21.88;;;8.80;99.90;;;;;;6245415;23;20008;-76
2021/11/22 01:55:51;;;;;;;48.78;22.35;;;8.90;99.90;;;;;;6246888;22;20034;-76
2021/11/22 01:58:17;;;;;;;41.08;21.35;;;8.90;99.90;;;;;;6245083;23;20012;-76
2021/11/22 02:00:54;;;;;;;39.00;20.08;;;8.80;99.90;;;;;;6246991;22;20320;-76
2021/11/22 02:03:20;;;;;;;35.38;19.70;;;8.80;99.90;;;;;;6246782;22;20002;-76
2021/11/22 02:05:50;;;;;;;33.90;19.10;;;8.80;99.90;;;;;;6244998;23;20042;-76
2021/11/22 02:08:17;;;;;;;38.05;20.52;;;8.80;99.90;;;;;;6246882;22;20420;-76
2021/11/22 02:10:42;;;;;;;36.63;19.60;;;8.90;99.90;;;;;;6246986;22;20004;-76
2021/11/22 02:13:08;;;;;;;34.80;19.48;;;8.90;99.90;;;;;;6247061;22;20562;-76
2021/11/22 02:15:34;;;;;;;40.25;19.08;;;8.90;99.90;;;;;;6246803;23;20007;-76
2021/11/22 02:18:00;;;;;;;35.75;19.20;;;8.90;99.90;;;;;;6246918;22;20027;-76
2021/11/22 02:20:28;;;;;;;40.50;19.60;;;8.90;99.90;;;;;;6246538;22;20030;-76
2021/11/22 02:22:57;;;;;;;34.67;18.77;;;8.90;99.90;;;;;;6244995;23;20000;-76
2021/11/22 02:25:25;;;;;;;34.53;19.67;;;8.90;99.90;;;;;;6244819;23;20011;-76
2021/11/22 02:27:51;;;;;;;42.72;20.88;;;8.90;99.90;;;;;;6246428;22;20032;-76
2021/11/22 02:30:19;;;;;;;36.63;20.48;;;9.00;99.90;;;;;;6245108;23;20011;-76
2021/11/22 02:32:46;;;;;;;39.65;19.98;;;8.90;99.90;;;;;;6246171;22;20004;-76
2021/11/22 02:35:17;;;;;;;40.58;19.98;;;8.90;99.90;;;;;;6244884;23;20015;-76
2021/11/22 02:37:43;;;;;;;34.67;18.98;;;9.00;99.90;;;;;;6246809;22;20000;-77
2021/11/22 02:40:09;;;;;;;41.28;21.08;;;9.00;99.90;;;;;;6244598;23;20064;-76
2021/11/22 02:42:40;;;;;;;42.38;20.63;;;9.00;99.90;;;;;;6245974;22;20018;-76
2021/11/22 02:45:07;;;;;;;37.22;19.38;;;9.00;99.90;;;;;;6245888;22;20079;-76
2021/11/22 02:47:33;;;;;;;42.47;21.15;;;8.90;99.90;;;;;;6244995;22;20075;-76
2021/11/22 02:49:59;;;;;;;42.45;19.83;;;8.90;99.90;;;;;;6245134;22;20050;-76
2021/11/22 02:52:25;;;;;;;41.15;20.48;;;8.90;99.90;;;;;;6244927;23;20436;-75
2021/11/22 02:54:50;;;;;;;40.47;19.77;;;8.90;99.90;;;;;;6244334;23;20062;-76
2021/11/22 02:57:16;;;;;;;43.35;21.23;;;8.90;99.90;;;;;;6246597;22;20000;-76
2021/11/22 02:59:42;;;;;;;33.92;19.65;;;8.90;99.90;;;;;;6246047;23;20062;-76
2021/11/22 03:02:13;;;;;;;42.22;20.73;;;8.90;99.90;;;;;;6246532;22;20067;-76
2021/11/22 03:04:42;;;;;;;38.80;20.50;;;8.90;99.90;;;;;;6246601;22;20008;-76
2021/11/22 03:07:08;;;;;;;34.65;18.73;;;8.90;99.90;;;;;;6246594;22;20495;-76
2021/11/22 03:09:35;;;;;;;42.17;22.15;;;8.90;99.90;;;;;;6246306;22;20001;-76
2021/11/22 03:12:03;;;;;;;39.60;20.13;;;8.90;99.90;;;;;;6246337;22;19999;-76
2021/11/22 03:14:30;;;;;;;35.30;20.00;;;8.90;99.90;;;;;;6246167;22;20004;-76
2021/11/22 03:16:56;;;;;;;38.13;19.90;;;8.90;99.90;;;;;;6246566;22;20011;-76
2021/11/22 03:19:22;;;;;;;34.97;18.92;;;8.80;99.90;;;;;;6244407;23;20380;-76
2021/11/22 03:21:48;;;;;;;35.83;20.08;;;8.80;99.90;;;;;;6246191;22;20003;-76
2021/11/22 03:24:15;;;;;;;42.55;21.05;;;8.80;99.90;;;;;;6246297;23;20339;-76
2021/11/22 03:26:41;;;;;;;34.30;19.50;;;8.80;99.90;;;;;;6246005;22;20004;-76
2021/11/22 03:29:07;;;;;;;42.97;21.58;;;8.90;99.90;;;;;;6244407;23;20336;-76
2021/11/22 03:31:33;;;;;;;35.85;20.20;;;8.90;99.90;;;;;;6246207;22;20012;-76
2021/11/22 03:34:01;;;;;;;40.08;21.38;;;8.80;99.90;;;;;;6246076;22;20011;-76
2021/11/22 03:36:28;;;;;;;38.50;20.63;;;8.90;99.90;;;;;;6246577;22;20356;-77
2021/11/22 03:38:54;;;;;;;42.35;21.95;;;8.90;99.90;;;;;;6244294;23;20001;-76
2021/11/22 03:41:20;;;;;;;39.95;22.52;;;8.90;99.90;;;;;;6244581;23;20074;-76
2021/11/22 03:43:50;;;;;;;35.22;21.13;;;8.90;99.90;;;;;;6246154;22;20003;-76
2021/11/22 03:46:17;;;;;;;35.03;20.52;;;9.00;99.90;;;;;;6246327;22;20371;-76
2021/11/22 03:48:43;;;;;;;35.13;20.17;;;9.00;99.90;;;;;;6246149;22;19997;-76
2021/11/22 03:51:09;;;;;;;36.90;19.95;;;9.00;99.90;;;;;;6246120;22;20003;-76
2021/11/22 03:53:34;;;;;;;35.92;20.15;;;9.00;99.90;;;;;;6245971;22;20000;-76
2021/11/22 03:56:00;;;;;;;39.90;20.98;;;9.10;99.90;;;;;;6243944;23;20083;-76
2021/11/22 03:58:26;;;;;;;39.05;20.65;;;9.10;99.90;;;;;;6245831;22;20014;-76
2021/11/22 04:00:52;;;;;;;34.60;20.08;;;9.10;99.90;;;;;;6246035;22;20008;-76
2021/11/22 04:03:18;;;;;;;36.17;20.60;;;9.20;99.90;;;;;;6244460;23;20432;-76
2021/11/22 04:05:44;;;;;;;33.67;19.77;;;9.20;99.90;;;;;;6245767;22;20006;-76
2021/11/22 04:08:10;;;;;;;32.95;18.90;;;9.20;99.90;;;;;;6245711;22;20039;-77
2021/11/22 04:10:36;;;;;;;35.75;20.00;;;9.20;99.90;;;;;;6246249;22;20057;-76
2021/11/22 04:13:03;;;;;;;32.50;18.27;;;9.20;99.90;;;;;;6244864;23;20015;-76
2021/11/22 04:15:29;;;;;;;34.67;19.42;;;9.30;99.90;;;;;;6244322;23;20023;-76
2021/11/22 04:17:55;;;;;;;36.88;19.25;;;9.30;99.90;;;;;;6245841;22;20054;-76
2021/11/22 04:20:21;;;;;;;35.40;19.40;;;9.30;99.90;;;;;;6246252;22;19997;-76
2021/11/22 04:22:47;;;;;;;37.30;20.55;;;9.30;99.90;;;;;;6246413;23;20024;-76
2021/11/22 04:25:12;;;;;;;35.08;20.40;;;9.30;99.90;;;;;;6244399;23;20035;-76
2021/11/22 04:27:39;;;;;;;33.03;19.20;;;9.30;99.90;;;;;;6245767;22;20010;-76
2021/11/22 04:30:08;;;;;;;37.25;19.70;;;9.30;99.90;;;;;;6243911;23;20008;-76
2021/11/22 04:32:34;;;;;;;38.22;20.20;;;9.30;99.90;;;;;;6244067;23;20004;-76
2021/11/22 04:34:59;;;;;;;43.90;20.40;;;9.30;99.90;;;;;;6245476;23;20032;-79
2021/11/22 04:37:49;;;;;;;40.70;21.42;;;9.30;99.90;;;;;;6247543;22;20470;-81
2021/11/22 04:40:17;;;;;;;36.42;19.75;;;9.30;99.90;;;;;;6244489;23;20331;-81
2021/11/22 04:42:47;;;;;;;37.78;21.65;;;9.30;99.90;;;;;;6245722;22;19996;-81
2021/11/22 04:45:17;;;;;;;37.15;20.00;;;9.30;99.90;;;;;;6246003;22;20007;-81
2021/11/22 04:47:43;;;;;;;37.88;20.92;;;9.30;99.90;;;;;;6244214;23;20005;-81
2021/11/22 04:50:09;;;;;;;37.72;20.63;;;9.30;99.90;;;;;;6244222;23;20008;-81
2021/11/22 04:52:35;;;;;;;39.15;20.35;;;9.20;99.90;;;;;;6245726;22;20043;-81
2021/11/22 04:55:02;;;;;;;39.75;21.33;;;9.20;99.90;;;;;;6245656;22;20001;-81
2021/11/22 04:57:28;;;;;;;39.05;21.27;;;9.30;99.90;;;;;;6247478;22;20003;-81
2021/11/22 04:59:54;;;;;;;41.97;20.75;;;9.30;99.90;;;;;;6247530;23;20343;-81
2021/11/22 05:02:19;;;;;;;44.97;22.02;;;9.30;99.90;;;;;;6246070;23;20034;-81
2021/11/22 05:04:45;;;;;;;44.92;22.63;;;9.20;99.90;;;;;;6247649;23;20004;-81
2021/11/22 05:07:11;;;;;;;43.88;21.70;;;9.20;99.90;;;;;;6245897;23;20497;-81
2021/11/22 05:09:37;;;;;;;45.92;22.67;;;9.20;99.90;;;;;;6245922;23;20004;-81
2021/11/22 05:12:04;;;;;;;42.33;22.98;;;9.20;99.90;;;;;;6245941;23;20015;-81
2021/11/22 05:14:30;;;;;;;51.85;23.85;;;9.20;99.90;;;;;;6245610;23;20019;-81
2021/11/22 05:16:56;;;;;;;39.65;20.70;;;9.20;99.90;;;;;;6247654;22;20006;-81
2021/11/22 05:19:24;;;;;;;48.55;21.77;;;9.20;99.90;;;;;;6245691;23;20402;-81
2021/11/22 05:21:50;;;;;;;52.75;22.13;;;9.20;99.90;;;;;;6247572;22;19996;-81
2021/11/22 05:24:15;;;;;;;45.28;22.60;;;9.20;99.90;;;;;;6247671;22;20007;-81
2021/11/22 05:26:41;;;;;;;43.58;21.50;;;9.20;99.90;;;;;;6247656;22;20420;-81
2021/11/22 05:29:08;;;;;;;49.25;22.67;;;9.20;99.90;;;;;;6247391;23;20008;-81
2021/11/22 05:31:34;;;;;;;53.85;23.70;;;9.20;99.90;;;;;;6245633;23;20008;-81
2021/11/22 05:34:01;;;;;;;48.13;22.98;;;9.20;99.90;;;;;;6247136;22;20420;-81
2021/11/22 05:36:27;;;;;;;50.88;23.13;;;9.20;99.90;;;;;;6247400;22;20328;-81
2021/11/22 05:38:54;;;;;;;53.33;25.05;;;9.20;99.90;;;;;;6247400;22;20003;-81
2021/11/22 05:41:19;;;;;;;50.38;24.48;;;9.20;99.90;;;;;;6247281;22;20000;-82
2021/11/22 05:43:46;;;;;;;47.45;23.95;;;9.20;99.90;;;;;;6245670;23;20011;-81
2021/11/22 05:46:12;;;;;;;46.13;23.23;;;9.30;99.90;;;;;;6245534;23;20011;-81
2021/11/22 05:48:38;;;;;;;43.20;22.67;;;9.20;99.90;;;;;;6247105;23;20004;-81
2021/11/22 05:51:07;;;;;;;47.10;22.80;;;9.30;99.90;;;;;;6247156;22;20008;-81
2021/11/22 05:53:34;;;;;;;48.40;22.92;;;9.30;99.90;;;;;;6247220;22;20011;-81
2021/11/22 05:56:05;;;;;;;43.78;23.25;;;9.30;99.90;;;;;;6245418;23;20061;-82
2021/11/22 05:58:31;;;;;;;52.23;23.87;;;9.30;99.90;;;;;;6246818;22;20386;-81
2021/11/22 06:01:03;;;;;;;42.10;22.35;;;9.30;99.90;;;;;;6245549;23;20079;-82
2021/11/22 06:03:29;;;;;;;43.80;21.83;;;9.40;99.90;;;;;;6247100;22;20050;-82
2021/11/22 06:05:56;;;;;;;43.42;22.25;;;9.30;99.90;;;;;;6247154;22;19996;-81
2021/11/22 06:08:22;;;;;;;44.45;21.90;;;9.30;99.90;;;;;;6246244;23;20604;-82
2021/11/22 06:10:49;;;;;;;44.00;21.20;;;9.40;99.90;;;;;;6246944;23;20004;-81
2021/11/22 06:13:19;;;;;;;40.10;21.05;;;9.40;99.90;;;;;;6245330;23;20011;-81
2021/11/22 06:15:46;;;;;;;43.60;20.63;;;9.40;99.90;;;;;;6246868;22;20038;-81
2021/11/22 06:18:13;;;;;;;41.15;22.27;;;9.40;99.90;;;;;;6245354;23;20008;-81
2021/11/22 06:20:40;;;;;;;45.40;22.55;;;9.40;99.90;;;;;;6245312;23;20004;-81
2021/11/22 06:23:06;;;;;;;51.28;24.17;;;9.40;99.90;;;;;;6246926;22;20042;-81
2021/11/22 06:25:32;;;;;;;46.38;23.23;;;9.40;99.90;;;;;;6245245;23;20087;-81
2021/11/22 06:27:58;;;;;;;48.05;21.98;;;9.40;99.90;;;;;;6246719;22;20066;-81
2021/11/22 06:30:25;;;;;;;45.92;23.85;;;9.40;99.90;;;;;;6246814;23;20008;-81
2021/11/22 06:32:53;;;;;;;51.00;24.15;;;9.40;99.90;;;;;;6246861;22;20000;-81
2021/11/22 06:35:19;;;;;;;44.45;22.40;;;9.40;99.90;;;;;;6245076;23;20008;-81
2021/11/22 06:37:46;;;;;;;42.60;22.05;;;9.50;99.90;;;;;;6246689;22;20051;-81
2021/11/22 06:40:12;;;;;;;45.80;23.38;;;9.40;99.90;;;;;;6245117;23;20005;-81
2021/11/22 06:42:38;;;;;;;45.83;22.05;;;9.30;99.90;;;;;;6245164;23;19996;-81
2021/11/22 06:45:05;;;;;;;40.28;21.45;;;9.30;99.90;;;;;;6246654;23;20004;-81
2021/11/22 06:47:31;;;;;;;42.65;22.10;;;9.40;99.90;;;;;;6246504;23;20046;-82
2021/11/22 06:49:58;;;;;;;50.88;26.23;;;9.40;99.90;;;;;;6246684;22;20440;-81
2021/11/22 06:52:23;;;;;;;42.45;23.98;;;9.40;99.90;;;;;;6246644;22;20007;-81
2021/11/22 06:54:50;;;;;;;42.83;21.92;;;9.40;99.90;;;;;;6246548;22;20004;-81
2021/11/22 06:57:16;;;;;;;40.50;22.35;;;9.40;99.90;;;;;;6246504;22;20007;-81
2021/11/22 06:59:43;;;;;;;44.10;21.42;;;9.40;99.90;;;;;;6246095;22;20008;-81
2021/11/22 07:02:16;;;;;;;39.83;21.48;;;9.50;99.90;;;;;;6246427;22;20023;-81
2021/11/22 07:04:43;;;;;;;36.67;20.20;;;9.50;99.90;;;;;;6246486;22;20059;-81
2021/11/22 07:07:11;;;;;;;36.08;20.30;;;9.40;99.90;;;;;;6246491;22;20031;-81
2021/11/22 07:09:36;;;;;;;38.55;20.17;;;9.40;99.90;;;;;;6246379;22;20034;-82
2021/11/22 07:12:03;;;;;;;37.75;19.30;;;9.50;99.90;;;;;;6246154;23;20004;-81
2021/11/22 07:14:30;;;;;;;37.90;18.98;;;9.50;99.90;;;;;;6246315;22;20027;-82
2021/11/22 07:16:56;;;;;;;34.53;17.80;;;9.50;99.90;;;;;;6246412;22;20000;-81
2021/11/22 07:19:22;;;;;;;35.17;17.83;;;9.60;99.90;;;;;;6246261;22;20006;-80
2021/11/22 07:21:48;;;;;;;30.52;16.52;;;9.60;99.90;;;;;;6246233;22;20024;-81
2021/11/22 07:24:14;;;;;;;31.30;16.52;;;9.60;99.90;;;;;;6246291;22;20004;-81
2021/11/22 07:26:39;;;;;;;37.47;18.98;;;9.60;99.90;;;;;;6245934;22;20470;-81
2021/11/22 07:29:06;;;;;;;34.50;18.05;;;9.60;99.90;;;;;;6245895;22;19992;-81
2021/11/22 07:31:32;;;;;;;32.65;17.52;;;9.60;99.90;;;;;;6245981;23;20008;-81
2021/11/22 07:33:58;;;;;;;35.17;18.40;;;9.60;99.90;;;;;;6244506;23;20008;-81
2021/11/22 07:36:24;;;;;;;31.00;17.83;;;9.60;99.90;;;;;;6245989;22;19996;-81
2021/11/22 07:38:50;;;;;;;33.35;17.63;;;9.70;99.90;;;;;;6244196;23;20079;-81
2021/11/22 07:41:16;;;;;;;33.67;17.83;;;9.80;99.90;;;;;;6245885;22;20490;-83
2021/11/22 07:43:42;;;;;;;35.95;19.05;;;9.70;99.90;;;;;;6244309;23;20047;-82
2021/11/22 07:46:08;;;;;;;37.63;20.58;;;9.70;99.90;;;;;;6244182;23;20363;-83
2021/11/22 07:48:34;;;;;;;40.22;19.35;;;9.70;99.90;;;;;;6245308;22;20008;-83
2021/11/22 07:51:02;;;;;;;37.53;19.73;;;9.70;99.90;;;;;;6245221;23;20011;-80
2021/11/22 07:53:28;;;;;;;39.28;20.05;;;9.80;99.90;;;;;;6243925;23;20035;-81
2021/11/22 07:55:54;;;;;;;38.63;19.85;;;9.80;99.90;;;;;;6248286;22;20015;-81
2021/11/22 07:58:19;;;;;;;44.20;20.98;;;9.90;99.90;;;;;;6246165;22;20440;-81
2021/11/22 08:00:46;;;;;;;36.97;20.58;;;9.90;99.90;;;;;;6244579;23;20011;-81
2021/11/22 08:03:12;;;;;;;43.03;21.48;;;9.90;99.90;;;;;;6246222;22;20000;-80
2021/11/22 08:05:38;;;;;;;47.67;22.95;;;9.90;99.90;;;;;;6245897;23;20365;-80
2021/11/22 08:08:04;;;;;;;41.97;20.60;;;10.00;99.90;;;;;;6245927;22;20000;-80
2021/11/22 08:10:33;;;;;;;38.20;19.83;;;10.00;99.90;;;;;;6244358;23;20023;-81
2021/11/22 08:13:02;;;;;;;38.75;19.95;;;10.00;99.90;;;;;;6245452;22;20000;-76
2021/11/22 08:15:30;;;;;;;41.13;21.48;;;10.10;99.90;;;;;;6245377;22;20006;-76
2021/11/22 08:17:58;;;;;;;41.10;21.60;;;10.10;99.90;;;;;;6245506;22;19996;-77
2021/11/22 08:20:24;;;;;;;35.90;20.40;;;10.10;99.90;;;;;;6245434;22;20020;-77
2021/11/22 08:22:51;;;;;;;42.75;22.25;;;10.20;99.90;;;;;;6245860;22;20007;-77
2021/11/22 08:25:18;;;;;;;40.28;21.67;;;10.20;99.90;;;;;;6244158;23;20012;-77
2021/11/22 08:27:44;;;;;;;42.05;21.90;;;10.20;99.90;;;;;;6244560;22;20034;-77
2021/11/22 08:30:17;;;;;;;40.95;22.48;;;10.30;99.90;;;;;;6242460;22;20509;-77
2021/11/22 08:32:45;;;;;;;42.60;22.90;;;10.30;99.90;;;;;;6242050;22;20011;-77
2021/11/22 08:35:12;;;;;;;39.70;20.38;;;10.30;99.90;;;;;;6242225;22;20682;-76
2021/11/22 08:37:39;;;;;;;42.28;22.42;;;10.40;99.90;;;;;;6241314;23;20030;-77
2021/11/22 08:40:09;;;;;;;46.20;21.33;;;10.40;99.90;;;;;;6242554;22;20003;-77
2021/11/22 08:42:35;;;;;;;37.92;20.65;;;10.40;99.90;;;;;;6240879;23;20000;-77
2021/11/22 08:45:01;;;;;;;45.17;22.10;;;10.50;99.90;;;;;;6243282;22;20011;-76
2021/11/22 08:47:28;;;;;;;36.53;20.08;;;10.50;99.90;;;;;;6242360;22;20039;-77
2021/11/22 08:49:53;;;;;;;37.80;21.05;;;10.50;99.90;;;;;;6242971;22;20019;-79
2021/11/22 08:52:22;;;;;;;48.10;23.30;;;10.50;99.90;;;;;;6242165;23;20007;-77
2021/11/22 08:54:47;;;;;;;42.65;23.98;;;10.50;99.90;;;;;;6241912;22;20004;-77
2021/11/22 08:57:13;;;;;;;49.60;23.45;;;10.50;99.90;;;;;;6242301;22;20450;-77
2021/11/22 08:59:40;;;;;;;48.05;23.77;;;10.50;99.90;;;;;;6240490;23;20016;-77
2021/11/22 09:02:07;;;;;;;47.50;22.45;;;10.50;99.90;;;;;;6242150;22;19996;-77
2021/11/22 09:04:33;;;;;;;49.35;22.73;;;10.60;99.90;;;;;;6242801;22;20046;-77
2021/11/22 09:06:59;;;;;;;42.90;22.40;;;10.60;99.90;;;;;;6242145;22;20363;-77
2021/11/22 09:09:25;;;;;;;47.97;23.23;;;10.60;99.90;;;;;;6241877;22;20004;-77
2021/11/22 09:11:51;;;;;;;48.05;24.85;;;10.60;99.90;;;;;;6240997;23;20015;-77
2021/11/22 09:14:16;;;;;;;48.70;24.10;;;10.60;99.90;;;;;;6242399;22;20000;-77
2021/11/22 09:16:42;;;;;;;48.70;23.40;;;10.60;99.90;;;;;;6241059;23;20099;-77
2021/11/22 09:19:09;;;;;;;47.97;22.73;;;10.60;99.90;;;;;;6240509;23;20363;-77
2021/11/22 09:21:35;;;;;;;51.47;24.35;;;10.60;99.90;;;;;;6242110;22;20054;-77
2021/11/22 09:24:03;;;;;;;45.67;22.42;;;10.60;99.90;;;;;;6241187;23;20532;-77
2021/11/22 09:26:30;;;;;;;44.97;22.95;;;10.70;99.90;;;;;;6242474;22;20007;-77
2021/11/22 09:28:56;;;;;;;52.22;24.35;;;10.70;99.90;;;;;;6241791;22;20007;-77
2021/11/22 09:31:22;;;;;;;56.20;23.02;;;10.70;99.90;;;;;;6240903;23;20458;-77
2021/11/22 09:33:51;;;;;;;46.95;23.50;;;10.70;99.90;;;;;;6242139;22;20001;-77
2021/11/22 09:36:17;;;;;;;47.50;23.45;;;10.70;99.90;;;;;;6240300;23;20015;-77
2021/11/22 09:38:42;;;;;;;48.70;23.02;;;10.70;99.90;;;;;;6242613;23;20003;-77
2021/11/22 09:41:09;;;;;;;52.47;24.75;;;10.70;99.90;;;;;;6240082;23;20000;-76
2021/11/22 09:43:36;;;;;;;52.13;23.08;;;10.80;99.90;;;;;;6244201;22;20000;-77
2021/11/22 09:46:21;;;;;;;52.95;25.23;;;10.70;99.90;;;;;;6242748;23;20004;-77
2021/11/22 09:48:47;;;;;;;51.25;23.77;;;10.80;99.90;;;;;;6242686;23;20008;-77
2021/11/22 09:51:13;;;;;;;47.50;22.75;;;10.80;99.90;;;;;;6242330;23;20032;-77
2021/11/22 09:53:41;;;;;;;49.78;23.05;;;10.80;99.90;;;;;;6242014;23;20094;-77
2021/11/22 09:56:08;;;;;;;49.10;22.80;;;10.80;99.90;;;;;;6242970;23;20481;-76
2021/11/22 09:58:34;;;;;;;49.58;23.10;;;10.80;99.90;;;;;;6241849;23;20044;-77
2021/11/22 10:01:05;;;;;;;49.40;24.45;;;10.80;99.90;;;;;;6243911;22;20023;-77
2021/11/22 10:03:31;;;;;;;47.33;22.92;;;10.80;99.90;;;;;;6244287;22;20004;-77
2021/11/22 10:06:00;;;;;;;52.60;22.92;;;10.80;99.90;;;;;;6243666;23;20000;-76
2021/11/22 10:08:26;;;;;;;47.97;21.63;;;10.80;99.90;;;;;;6243609;22;20000;-77
2021/11/22 10:11:00;;;;;;;50.88;23.83;;;10.80;99.90;;;;;;6244192;22;20004;-76
2021/11/22 10:13:39;;;;;;;52.45;23.67;;;10.80;99.90;;;;;;6244256;22;20011;-76
2021/11/22 10:16:07;;;;;;;58.92;24.30;;;10.80;99.90;;;;;;6242322;23;20004;-77
2021/11/22 10:18:39;;;;;;;47.78;23.15;;;10.90;99.90;;;;;;6243376;23;20083;-77
2021/11/22 10:21:10;;;;;;;54.90;25.02;;;10.90;99.90;;;;;;6243696;22;20071;-77
2021/11/22 10:23:39;;;;;;;53.80;24.17;;;10.90;99.90;;;;;;6243821;22;20007;-77
2021/11/22 10:26:10;;;;;;;50.67;24.13;;;10.90;99.90;;;;;;6244321;22;20052;-77
2021/11/22 10:28:43;;;;;;;51.10;22.65;;;10.90;99.90;;;;;;6241792;23;20005;-76
2021/11/22 10:31:21;;;;;;;47.08;22.33;;;10.90;99.90;;;;;;6243274;23;20038;-76
2021/11/22 10:33:49;;;;;;;49.00;22.60;;;10.90;99.90;;;;;;6241377;23;20008;-76
2021/11/22 10:36:22;;;;;;;48.42;23.00;;;10.90;99.90;;;;;;6243187;22;20004;-76
2021/11/22 10:38:51;;;;;;;47.25;23.02;;;10.90;99.90;;;;;;6243664;22;20363;-76
2021/11/22 10:41:22;;;;;;;43.28;23.38;;;10.90;99.90;;;;;;6241837;23;20012;-77
2021/11/22 10:43:52;;;;;;;48.60;22.65;;;10.90;99.90;;;;;;6241397;23;19996;-77
2021/11/22 10:46:54;;;;;;;50.53;23.75;;;11.00;99.90;;;;;;6241504;23;20061;-76
2021/11/22 10:49:28;;;;;;;43.38;21.88;;;11.00;99.90;;;;;;6243121;23;20004;-76
2021/11/22 10:52:29;;;;;;;50.40;22.75;;;11.00;99.90;;;;;;6243871;22;20004;-77
2021/11/22 10:55:23;;;;;;;49.65;23.30;;;11.00;99.90;;;;;;6240737;23;20008;-76
2021/11/22 10:57:49;;;;;;;53.40;23.60;;;11.10;99.90;;;;;;6236715;23;20004;-77
2021/11/22 11:00:21;;;;;;;48.88;22.65;;;11.10;99.90;;;;;;6243235;22;20083;-76
2021/11/22 11:02:49;;;;;;;54.70;24.23;;;11.10;99.90;;;;;;6242787;22;20000;-76
2021/11/22 11:05:31;;;;;;;52.58;23.02;;;11.10;99.90;;;;;;6242423;22;20007;-75
2021/11/22 11:08:04;;;;;;;49.30;22.30;;;11.20;99.90;;;;;;6242270;22;20000;-76
2021/11/22 11:10:32;;;;;;;49.13;21.40;;;11.20;99.90;;;;;;6241240;23;20008;-77
2021/11/22 11:12:58;;;;;;;52.47;22.17;;;11.30;99.90;;;;;;6242229;23;20039;-77
2021/11/22 11:15:25;;;;;;;55.38;23.98;;;11.30;99.90;;;;;;6243027;22;20016;-78
2021/11/22 11:17:54;;;;;;;54.97;23.42;;;11.30;99.90;;;;;;6242710;22;19997;-77
2021/11/22 11:20:22;;;;;;;58.97;24.38;;;11.40;99.90;;;;;;6244692;23;20054;-77
2021/11/22 11:22:50;;;;;;;49.03;23.13;;;11.40;99.90;;;;;;6245702;22;20016;-78
2021/11/22 11:25:20;;;;;;;54.85;24.17;;;11.50;99.90;;;;;;6246074;22;20012;-78
2021/11/22 11:27:48;;;;;;;48.92;23.02;;;11.50;99.90;;;;;;6246031;22;20039;-77
2021/11/22 11:30:19;;;;;;;52.03;23.35;;;11.50;99.90;;;;;;6246968;22;20000;-80
2021/11/22 11:32:45;;;;;;;54.53;23.75;;;11.50;99.90;;;;;;6246507;22;20336;-76
2021/11/22 11:35:17;;;;;;;51.03;22.80;;;11.50;99.90;;;;;;6246201;22;20428;-77
2021/11/22 11:37:55;;;;;;;;;;;11.50;99.90;;;;;;6246952;22;19996;-77
2021/11/22 11:40:58;;;;;;;51.03;22.52;;;11.50;99.90;;;;;;6244859;23;19918;-76
2021/11/22 11:43:45;;;;;;;46.47;22.33;;;11.50;99.90;;;;;;6246286;23;20023;-76
2021/11/22 11:46:11;;;;;;;52.65;22.77;;;11.60;99.90;;;;;;6244372;23;20095;-76
2021/11/22 11:49:00;;;;;;;56.38;23.80;;;11.50;99.90;;;;;;6244108;23;20027;-76
2021/11/22 11:51:38;;;;;;;50.67;23.75;;;11.60;99.90;;;;;;6244411;23;20015;-75
2021/11/22 11:54:19;;;;;;;52.75;22.95;;;11.60;99.90;;;;;;6245714;22;20035;-76
2021/11/22 11:56:46;;;;;;;57.10;22.75;;;11.60;99.90;;;;;;6244430;23;20000;-77
2021/11/22 11:59:27;;;;;;;47.70;23.63;;;11.60;99.90;;;;;;6243909;23;20051;-76
2021/11/22 12:02:05;;;;;;;46.43;21.53;;;11.60;99.90;;;;;;6245762;22;20000;-76
2021/11/22 12:04:49;;;;;;;50.75;23.40;;;11.70;99.90;;;;;;6245859;22;20020;-76
2021/11/22 12:07:27;;;;;;;52.28;24.02;;;11.70;99.90;;;;;;6243798;23;20004;-76
2021/11/22 12:10:11;;;;;;;58.03;24.25;;;11.70;99.90;;;;;;6245596;23;20019;-76
2021/11/22 12:12:42;;;;;;;54.65;23.63;;;11.70;99.90;;;;;;6244443;23;20062;-76
2021/11/22 12:15:15;;;;;;;58.38;25.13;;;11.70;99.90;;;;;;6244193;23;20008;-76
2021/11/22 12:17:41;;;;;;;56.25;25.63;;;11.70;99.90;;;;;;6245087;22;20027;-76
2021/11/22 12:20:31;;;;;;;53.22;24.38;;;11.70;99.90;;;;;;6245299;23;20003;-76
2021/11/22 12:23:00;;;;;;;56.40;26.58;;;11.70;99.90;;;;;;6243369;23;20497;-75
2021/11/22 12:25:49;;;;;;;53.35;24.92;;;11.80;99.90;;;;;;6245051;22;20336;-77
2021/11/22 12:28:24;;;;;;;52.55;24.95;;;11.80;99.90;;;;;;6244865;22;20032;-76
2021/11/22 12:30:55;;;;;;;52.45;23.83;;;11.80;99.90;;;;;;6245702;23;20000;-77
2021/11/22 12:33:21;;;;;;;53.27;26.13;;;11.80;99.90;;;;;;6245592;23;20004;-77
2021/11/22 12:35:59;;;;;;;48.08;24.00;;;11.80;99.90;;;;;;6245837;22;20655;-76
2021/11/22 12:38:35;;;;;;;57.88;25.10;;;11.80;99.90;;;;;;6243903;23;20012;-76